Time;durP1;ratioP1;P1;durP2;ratioP2;P2;SDS_P1;SDS_P2;PMS_P1;PMS_P2;Temp;Humidity;BMP_temperature;BMP_pressure;BME280_temperature;BME280_humidity;BME280_pressure;Samples;Min_cycle;Max_cycle;Signal;HPM_P1;HPM_P2
2023/01/08 00:02:14;;;;;;;61.00;35.65;;;;;;;1.93;94.58;99999.42;2124435;82;20983;-85
2023/01/08 00:05:15;;;;;;;60.17;35.28;;;;;;;1.91;94.42;99996.91;2127076;83;21358;-85
2023/01/08 00:08:17;;;;;;;61.25;34.33;;;;;;;1.93;94.44;99986.34;2128886;82;21013;-85
2023/01/08 00:11:18;;;;;;;62.48;35.25;;;;;;;1.91;94.51;99986.92;2125802;83;21028;-86
2023/01/08 00:14:19;;;;;;;61.75;34.90;;;;;;;1.91;94.43;99993.46;2126806;82;20961;-86
2023/01/08 00:17:20;;;;;;;56.58;33.88;;;;;;;1.91;94.35;99977.28;2129276;83;21062;-85
2023/01/08 00:20:22;;;;;;;60.67;34.88;;;;;;;1.86;94.16;99978.13;2130066;82;21086;-85
2023/01/08 00:23:23;;;;;;;59.38;34.10;;;;;;;1.87;94.21;99977.64;2129847;82;21086;-85
2023/01/08 00:26:24;;;;;;;59.53;34.45;;;;;;;1.86;94.31;99970.27;2128096;83;21047;-85
2023/01/08 00:29:26;;;;;;;57.08;33.10;;;;;;;1.85;94.15;99975.12;2127144;82;21527;-85
2023/01/08 00:32:27;;;;;;;60.23;34.78;;;;;;;1.82;94.01;99967.51;2125408;82;20971;-85
2023/01/08 00:35:28;;;;;;;63.85;34.25;;;;;;;1.81;94.08;99965.86;2128320;82;20984;-84
2023/01/08 00:38:29;;;;;;;58.25;33.90;;;;;;;1.82;94.10;99962.76;2127826;83;20959;-84
2023/01/08 00:41:31;;;;;;;62.33;36.73;;;;;;;1.80;94.18;99964.17;2130107;83;20955;-85
2023/01/08 00:44:32;;;;;;;60.40;35.85;;;;;;;1.80;94.20;99960.23;2127829;82;21014;-85
2023/01/08 00:47:33;;;;;;;64.42;36.40;;;;;;;1.79;94.17;99957.28;2130135;82;21003;-84
2023/01/08 00:50:34;;;;;;;57.88;35.92;;;;;;;1.76;94.11;99951.80;2127468;82;21019;-85
2023/01/08 00:53:36;;;;;;;66.20;35.03;;;;;;;1.73;94.09;99954.64;2127703;82;21503;-86
2023/01/08 00:56:38;;;;;;;64.42;36.15;;;;;;;1.72;94.03;99955.61;2126414;82;22076;-86
2023/01/08 00:59:39;;;;;;;65.15;37.45;;;;;;;1.69;94.13;99958.45;2127107;82;21002;-85
2023/01/08 01:02:41;;;;;;;63.42;38.35;;;;;;;1.71;94.25;99953.91;2121414;82;21021;-85
2023/01/08 01:05:42;;;;;;;65.37;37.78;;;;;;;1.69;94.30;99955.83;2127833;82;21006;-85
2023/01/08 01:08:43;;;;;;;66.25;37.63;;;;;;;1.68;94.39;99959.38;2113412;82;20964;-85
2023/01/08 01:11:44;;;;;;;63.25;37.53;;;;;;;1.68;94.49;99959.38;2122005;83;21013;-85
2023/01/08 01:14:45;;;;;;;67.05;37.88;;;;;;;1.66;94.38;99963.91;2123387;82;21453;-84
2023/01/08 01:17:46;;;;;;;65.12;37.45;;;;;;;1.62;94.26;99957.22;2129140;82;21026;-85
2023/01/08 01:20:47;;;;;;;62.85;37.33;;;;;;;1.60;94.29;99958.28;2125961;82;20981;-85
2023/01/08 01:23:49;;;;;;;62.62;37.83;;;;;;;1.56;94.36;99960.30;2129607;82;21027;-85
2023/01/08 01:26:51;;;;;;;70.65;41.18;;;;;;;1.55;94.44;99955.55;2130411;82;21024;-85
2023/01/08 01:29:53;;;;;;;66.65;39.55;;;;;;;1.54;94.49;99960.39;2131491;82;21035;-85
2023/01/08 01:32:54;;;;;;;67.87;40.12;;;;;;;1.54;94.51;99954.33;2128442;82;21012;-85
2023/01/08 01:36:00;;;;;;;73.05;40.65;;;;;;;1.51;94.48;99954.08;2126698;82;21073;-84
2023/01/08 01:39:03;;;;;;;63.38;37.30;;;;;;;1.51;94.45;99950.16;2119863;82;21034;-85
2023/01/08 01:42:05;;;;;;;66.15;37.35;;;;;;;1.47;94.28;99950.04;2128302;82;21514;-85
2023/01/08 01:45:26;;;;;;;62.80;37.58;;;;;;;1.44;94.17;99941.59;2124155;82;21023;-86
2023/01/08 01:48:27;;;;;;;68.67;38.08;;;;;;;1.39;94.16;99943.23;2132735;82;21555;-87
2023/01/08 01:51:32;;;;;;;68.62;39.23;;;;;;;1.34;94.26;99936.19;2126860;82;20962;-86
2023/01/08 01:54:35;;;;;;;901.48;86.12;;;;;;;1.34;94.47;99932.27;2124192;82;21079;-86
2023/01/08 01:57:38;;;;;;;66.60;37.38;;;;;;;1.33;94.55;99931.92;2127826;83;21617;-86
2023/01/08 02:00:41;;;;;;;66.45;38.65;;;;;;;1.29;94.44;99928.67;2124273;82;20996;-86
2023/01/08 02:03:42;;;;;;;70.37;38.48;;;;;;;1.27;94.44;99932.37;2128132;82;21043;-87
2023/01/08 02:07:07;;;;;;;72.90;41.63;;;;;;;1.21;94.32;99932.79;2128231;83;21019;-86
2023/01/08 02:10:34;;;;;;;72.35;41.37;;;;;;;1.18;94.36;99933.02;2126688;83;21032;-86
2023/01/08 02:13:40;;;;;;;70.32;39.70;;;;;;;1.16;94.51;99926.61;2123787;83;21589;-85
2023/01/08 02:17:00;;;;;;;75.90;40.45;;;;;;;1.11;94.42;99911.73;2126620;82;21829;-85
2023/01/08 02:20:13;;;;;;;72.03;41.30;;;;;;;1.08;94.70;99906.25;2132408;82;21011;-86
2023/01/08 02:23:38;;;;;;;77.60;43.38;;;;;;;1.08;94.83;99913.27;2126883;82;21452;-85
2023/01/08 02:26:41;;;;;;;69.67;38.48;;;;;;;1.10;95.13;99916.61;2125933;82;21004;-86
2023/01/08 02:29:43;;;;;;;70.55;41.00;;;;;;;1.08;94.99;99905.42;2126315;82;20999;-86
2023/01/08 02:32:44;;;;;;;70.00;41.20;;;;;;;1.06;94.94;99902.08;2129438;83;21019;-85
2023/01/08 02:35:53;;;;;;;76.87;42.67;;;;;;;1.08;95.04;99900.20;2128784;83;21051;-86
2023/01/08 02:39:29;;;;;;;74.50;41.48;;;;;;;1.07;95.14;99893.28;2126667;83;21022;-87
2023/01/08 02:42:54;;;;;;;75.80;42.67;;;;;;;1.09;95.15;99891.41;2131662;83;21069;-88
2023/01/08 02:45:59;;;;;;;68.17;39.75;;;;;;;1.08;94.96;99892.36;2124951;82;21046;-87
2023/01/08 02:49:05;;;;;;;76.40;41.13;;;;;;;1.08;94.99;99894.97;2127080;83;21055;-87
2023/01/08 02:52:09;;;;;;;75.90;40.98;;;;;;;1.09;95.10;99899.23;2103289;83;21023;-86
2023/01/08 02:55:12;;;;;;;71.40;40.63;;;;;;;1.09;95.10;99886.17;2102511;83;21078;-87
2023/01/08 02:58:14;;;;;;;69.32;39.55;;;;;;;1.09;95.01;99888.78;2107285;83;21081;-87
2023/01/08 03:01:17;;;;;;;74.72;42.10;;;;;;;1.09;95.03;99885.70;2099498;83;21035;-87
2023/01/08 03:04:21;;;;;;;76.60;42.27;;;;;;;1.10;95.06;99885.25;2102355;83;21012;-87
2023/01/08 03:07:23;;;;;;;68.45;40.55;;;;;;;1.10;94.99;99880.02;2094186;83;21003;-85
2023/01/08 03:10:28;;;;;;;69.35;39.55;;;;;;;1.11;94.94;99871.22;2094081;83;20987;-85
2023/01/08 03:13:34;;;;;;;64.95;38.55;;;;;;;1.06;94.93;99861.09;2111683;83;21526;-87
2023/01/08 03:16:47;;;;;;;72.45;38.55;;;;;;;1.06;95.17;99868.94;2102107;83;21059;-84
2023/01/08 03:20:02;;;;;;;70.85;39.38;;;;;;;1.08;95.09;99897.58;2106921;83;21000;-86
2023/01/08 03:23:08;;;;;;;71.72;40.10;;;;;;;1.06;94.95;99896.85;2081887;83;21071;-86
2023/01/08 03:26:14;;;;;;;67.03;38.63;;;;;;;1.06;95.04;99892.94;2100147;83;21509;-86
2023/01/08 03:29:19;;;;;;;68.90;37.38;;;;;;;1.03;94.86;99890.55;2128343;82;21122;-86
2023/01/08 03:32:22;;;;;;;73.60;39.65;;;;;;;0.98;94.85;99893.95;2110498;83;21027;-86
2023/01/08 03:35:25;;;;;;;68.60;37.70;;;;;;;1.00;95.01;99884.23;2103555;83;20991;-87
2023/01/08 03:38:32;;;;;;;80.67;36.90;;;;;;;1.00;94.95;99889.46;2110755;83;21015;-87
2023/01/08 03:41:35;;;;;;;64.65;37.35;;;;;;;1.01;94.94;99880.67;2101121;83;20980;-85
2023/01/08 03:44:36;;;;;;;71.42;40.23;;;;;;;0.96;94.71;99886.69;2107775;83;21071;-86
2023/01/08 03:47:40;;;;;;;62.75;36.48;;;;;;;0.97;94.88;99883.98;2108882;83;21062;-86
2023/01/08 03:50:41;;;;;;;69.30;38.70;;;;;;;0.95;94.79;99886.34;2107324;83;21581;-86
2023/01/08 03:53:42;;;;;;;68.42;37.83;;;;;;;0.96;94.92;99882.77;2114083;83;21012;-85
2023/01/08 03:56:44;;;;;;;69.92;37.08;;;;;;;0.97;94.98;99879.23;2100218;83;21062;-86
2023/01/08 03:59:46;;;;;;;62.45;37.05;;;;;;;0.80;94.22;99870.83;2095641;83;21086;-86
2023/01/08 04:02:47;;;;;;;67.72;37.50;;;;;;;0.67;94.21;99868.73;2096746;83;20998;-86
2023/01/08 04:05:48;;;;;;;70.72;37.95;;;;;;;0.58;94.15;99862.87;2106014;83;21526;-86
2023/01/08 04:08:49;;;;;;;64.60;36.45;;;;;;;0.53;94.47;99844.08;2101893;83;21057;-86
2023/01/08 04:11:51;;;;;;;67.87;36.95;;;;;;;0.50;94.82;99840.38;2102699;83;21066;-87
2023/01/08 04:14:52;;;;;;;66.40;37.23;;;;;;;0.53;95.28;99844.08;2093706;83;21047;-86
2023/01/08 04:17:53;;;;;;;62.83;36.93;;;;;;;0.53;95.34;99837.55;2092351;83;21491;-85
2023/01/08 04:20:55;;;;;;;65.12;38.13;;;;;;;0.52;95.44;99838.03;2103319;83;20974;-86
2023/01/08 04:23:56;;;;;;;61.60;35.98;;;;;;;0.50;95.30;99833.86;2096227;83;21035;-86
2023/01/08 04:26:57;;;;;;;66.00;37.00;;;;;;;0.47;95.38;99828.86;2102226;83;21528;-86
2023/01/08 04:29:58;;;;;;;61.23;35.38;;;;;;;0.44;95.32;99820.30;2108320;83;21021;-86
2023/01/08 04:32:59;;;;;;;65.92;35.95;;;;;;;0.42;95.36;99804.38;2112035;83;21015;-87
2023/01/08 04:36:02;;;;;;;64.05;36.23;;;;;;;0.37;95.24;99813.86;2098063;83;21012;-85
2023/01/08 04:39:04;;;;;;;65.20;37.13;;;;;;;0.36;95.22;99811.34;2100687;83;21067;-86
2023/01/08 04:42:05;;;;;;;63.90;37.95;;;;;;;0.37;95.25;99825.60;2100546;83;21022;-87
2023/01/08 04:45:07;;;;;;;64.77;34.90;;;;;;;0.37;95.19;99828.21;2104166;83;20996;-86
2023/01/08 04:48:09;;;;;;;60.92;36.23;;;;;;;0.34;95.07;99818.44;2091544;83;21692;-87
2023/01/08 04:51:10;;;;;;;68.78;37.25;;;;;;;0.34;95.16;99832.34;2096451;83;21059;-86
2023/01/08 04:54:11;;;;;;;60.23;35.48;;;;;;;0.37;95.27;99833.91;2101586;83;21670;-87
2023/01/08 04:57:12;;;;;;;61.20;36.25;;;;;;;0.40;95.32;99835.00;2095810;82;21019;-86
2023/01/08 05:00:14;;;;;;;63.20;35.75;;;;;;;0.43;95.40;99840.83;2094671;83;21006;-86
2023/01/08 05:03:16;;;;;;;66.47;37.28;;;;;;;0.39;95.26;99824.17;2106079;83;21007;-86
2023/01/08 05:06:17;;;;;;;66.07;37.35;;;;;;;0.36;95.10;99822.61;2098598;83;21018;-86
2023/01/08 05:09:18;;;;;;;64.07;35.20;;;;;;;0.31;94.87;99810.38;2096687;83;21506;-87
2023/01/08 05:12:19;;;;;;;60.15;35.75;;;;;;;0.30;95.01;99820.44;2099335;83;21039;-88
2023/01/08 05:15:20;;;;;;;62.10;35.43;;;;;;;0.32;95.20;99807.30;2096090;83;20991;-86
2023/01/08 05:18:21;;;;;;;60.00;33.90;;;;;;;0.33;95.35;99811.56;2097280;83;21000;-86
2023/01/08 05:21:22;;;;;;;56.37;32.83;;;;;;;0.34;95.47;99794.50;2102757;82;21071;-86
2023/01/08 05:24:23;;;;;;;61.77;35.92;;;;;;;0.40;95.76;99794.06;2106588;83;21083;-86
2023/01/08 05:27:24;;;;;;;56.63;32.95;;;;;;;0.44;95.84;99791.58;2104917;83;21075;-86
2023/01/08 05:30:25;;;;;;;59.50;34.98;;;;;;;0.50;96.06;99785.55;2100761;83;20996;-86
2023/01/08 05:33:27;;;;;;;59.53;32.95;;;;;;;0.55;96.12;99783.45;2101522;83;21003;-86
2023/01/08 05:36:29;;;;;;;57.40;33.35;;;;;;;0.59;96.12;99784.44;2099328;83;21018;-86
2023/01/08 05:39:31;;;;;;;61.15;34.45;;;;;;;0.64;96.25;99784.09;2100568;83;20992;-85
2023/01/08 05:42:36;;;;;;;54.08;30.30;;;;;;;0.68;96.72;99762.05;2103382;83;21065;-86
2023/01/08 05:45:37;;;;;;;59.77;33.20;;;;;;;0.69;96.65;99766.31;2099926;83;20987;-86
2023/01/08 05:48:38;;;;;;;57.48;32.93;;;;;;;0.70;96.66;99762.74;2093757;83;21482;-87
2023/01/08 05:51:39;;;;;;;52.53;31.17;;;;;;;0.73;96.99;99763.82;2098402;83;20971;-86
2023/01/08 05:54:40;;;;;;;53.38;31.15;;;;;;;0.77;96.95;99769.20;2093673;83;21463;-86
2023/01/08 05:57:41;;;;;;;57.75;31.97;;;;;;;0.82;96.95;99771.48;2086622;83;21059;-86
2023/01/08 06:00:42;;;;;;;52.23;30.40;;;;;;;0.87;97.06;99766.28;2088760;83;21024;-86
2023/01/08 06:03:44;;;;;;;52.90;30.90;;;;;;;0.93;97.47;99762.83;2089308;83;21461;-87
2023/01/08 06:06:45;;;;;;;50.43;30.57;;;;;;;0.95;97.18;99764.37;2086970;83;21003;-87
2023/01/08 06:09:46;;;;;;;50.10;29.85;;;;;;;0.95;96.84;99763.08;2095487;83;20999;-87
2023/01/08 06:12:48;;;;;;;45.40;29.30;;;;;;;0.97;96.87;99757.75;2085319;83;21475;-88
2023/01/08 06:15:49;;;;;;;47.27;27.98;;;;;;;1.00;96.75;99757.52;2087380;83;20976;-86
2023/01/08 06:18:50;;;;;;;51.80;30.77;;;;;;;0.99;96.72;99754.08;2086319;83;21015;-87
2023/01/08 06:21:51;;;;;;;51.20;31.80;;;;;;;0.99;96.66;99755.38;2086821;83;21559;-87
2023/01/08 06:24:53;;;;;;;51.58;29.42;;;;;;;0.97;96.52;99746.81;2085630;83;21062;-86
2023/01/08 06:27:54;;;;;;;53.55;31.10;;;;;;;0.96;96.40;99749.53;2087505;83;20949;-86
2023/01/08 06:31:00;;;;;;;49.95;30.37;;;;;;;0.95;96.39;99746.09;2090008;83;21007;-86
2023/01/08 06:34:01;;;;;;;59.18;33.80;;;;;;;0.94;96.39;99737.91;2078675;83;21042;-86
2023/01/08 06:37:02;;;;;;;54.63;32.20;;;;;;;0.93;96.31;99738.01;2090478;83;21003;-86
2023/01/08 06:40:04;;;;;;;50.45;29.50;;;;;;;0.93;96.35;99742.78;2090643;83;21440;-88
2023/01/08 06:43:06;;;;;;;56.15;35.52;;;;;;;0.91;96.23;99743.84;2080132;83;21004;-86
2023/01/08 06:46:08;;;;;;;56.53;33.90;;;;;;;0.77;95.82;99731.33;2089716;83;21018;-86
2023/01/08 06:49:09;;;;;;;52.15;29.40;;;;;;;0.77;96.02;99726.09;2090598;83;21503;-87
2023/01/08 06:52:11;;;;;;;45.65;27.07;;;;;;;0.77;96.34;99732.63;2088687;83;21070;-86
2023/01/08 06:55:12;;;;;;;49.80;29.07;;;;;;;0.83;96.95;99738.70;2087214;83;21548;-86
2023/01/08 06:58:13;;;;;;;49.30;29.60;;;;;;;0.92;97.37;99729.34;2099425;83;21037;-86
2023/01/08 07:01:15;;;;;;;48.92;28.02;;;;;;;1.04;97.75;99726.28;2102294;83;21019;-85
2023/01/08 07:04:18;;;;;;;49.93;28.17;;;;;;;1.15;98.32;99721.08;2098868;83;21090;-85
2023/01/08 07:07:19;;;;;;;46.75;28.10;;;;;;;1.23;98.46;99723.94;2099582;83;21015;-85
2023/01/08 07:10:21;;;;;;;43.23;26.37;;;;;;;1.28;98.38;99721.81;2099748;83;21464;-86
2023/01/08 07:13:23;;;;;;;47.23;26.87;;;;;;;1.30;98.33;99722.54;2104273;83;21055;-87
2023/01/08 07:16:24;;;;;;;43.60;26.70;;;;;;;1.30;98.33;99726.46;2106057;83;21051;-86
2023/01/08 07:19:25;;;;;;;45.65;28.07;;;;;;;1.36;98.15;99734.80;2101618;83;21011;-86
2023/01/08 07:22:27;;;;;;;46.30;28.12;;;;;;;1.39;98.37;99739.30;2100727;83;21023;-86
2023/01/08 07:25:29;;;;;;;47.93;27.90;;;;;;;1.46;98.47;99739.66;2099973;83;20980;-85
2023/01/08 07:28:31;;;;;;;43.00;24.90;;;;;;;1.47;98.36;99727.78;2099084;83;21036;-85
2023/01/08 07:31:32;;;;;;;44.10;25.95;;;;;;;1.47;98.03;99737.41;2102633;83;20983;-85
2023/01/08 07:34:35;;;;;;;45.95;25.80;;;;;;;1.50;97.98;99731.95;2098826;83;21031;-85
2023/01/08 07:37:42;;;;;;;42.58;24.55;;;;;;;1.48;97.62;99742.51;2103034;83;20976;-86
2023/01/08 07:40:43;;;;;;;43.33;26.10;;;;;;;1.32;96.76;99738.09;2099793;83;21078;-86
2023/01/08 07:43:47;;;;;;;38.75;25.12;;;;;;;1.28;96.61;99728.35;2097557;83;21996;-86
2023/01/08 07:46:49;;;;;;;42.93;26.10;;;;;;;1.21;96.47;99728.48;2101323;83;21496;-85
2023/01/08 07:49:50;;;;;;;40.00;25.77;;;;;;;1.20;96.66;99727.27;2099153;83;21047;-85
2023/01/08 07:52:51;;;;;;;41.18;26.50;;;;;;;1.21;96.70;99723.70;2100518;83;21043;-86
2023/01/08 07:56:02;;;;;;;40.85;25.82;;;;;;;1.22;96.79;99723.59;2103618;83;21096;-86
2023/01/08 07:59:03;;;;;;;39.73;25.20;;;;;;;1.28;96.88;99723.61;2081062;83;21064;-85
2023/01/08 08:02:05;;;;;;;42.25;25.72;;;;;;;1.34;96.93;99717.42;2110298;82;21026;-86
2023/01/08 08:05:07;;;;;;;42.53;26.02;;;;;;;1.40;96.99;99706.97;2104138;83;21048;-86
2023/01/08 08:08:10;;;;;;;42.53;26.07;;;;;;;1.50;97.45;99697.95;2099852;83;21464;-87
2023/01/08 08:11:12;;;;;;;42.10;23.85;;;;;;;1.61;97.83;99700.56;2086688;83;21023;-86
2023/01/08 08:14:15;;;;;;;42.88;25.52;;;;;;;1.72;98.49;99697.94;2104441;83;21453;-87
2023/01/08 08:17:16;;;;;;;39.98;25.10;;;;;;;1.81;98.48;99689.02;2095070;83;21023;-87
2023/01/08 08:20:17;;;;;;;39.45;25.02;;;;;;;1.86;98.17;99685.09;2108089;83;21000;-84
2023/01/08 08:23:18;;;;;;;40.00;23.75;;;;;;;1.89;97.88;99682.22;2101871;83;21532;-86
2023/01/08 08:26:22;;;;;;;37.15;23.35;;;;;;;1.95;97.85;99685.66;2096775;83;21040;-87
2023/01/08 08:29:23;;;;;;;37.15;24.40;;;;;;;2.00;98.05;99676.14;2098661;83;21031;-87
2023/01/08 08:32:24;;;;;;;41.70;24.87;;;;;;;2.04;98.28;99691.94;2096469;82;21098;-86
2023/01/08 08:35:26;;;;;;;41.30;24.35;;;;;;;2.15;98.33;99681.92;2104255;82;21004;-88
2023/01/08 08:38:28;;;;;;;40.10;23.73;;;;;;;2.25;98.32;99684.13;2103573;83;20997;-88
2023/01/08 08:41:29;;;;;;;40.08;24.00;;;;;;;2.33;98.23;99680.42;2099141;83;21087;-86
2023/01/08 08:44:30;;;;;;;43.13;24.90;;;;;;;2.43;98.22;99671.35;2101878;83;21103;-87
2023/01/08 08:47:31;;;;;;;38.65;25.05;;;;;;;2.53;98.13;99670.11;2106745;83;21000;-84
2023/01/08 08:50:33;;;;;;;38.28;24.92;;;;;;;2.67;98.13;99660.14;2103099;83;21539;-86
2023/01/08 08:53:34;;;;;;;37.05;23.83;;;;;;;2.96;98.48;99655.59;2100598;83;21023;-88
2023/01/08 08:56:36;;;;;;;36.20;22.70;;;;;;;3.26;98.53;99660.00;2095528;83;21073;-86
2023/01/08 08:59:37;;;;;;;34.18;22.05;;;;;;;3.53;98.37;99638.45;2106365;83;21071;-86
2023/01/08 09:02:39;;;;;;;32.08;21.87;;;;;;;3.68;97.79;99638.07;2106682;83;22431;-85
2023/01/08 09:05:42;;;;;;;31.42;21.48;;;;;;;3.84;97.30;99639.70;2102035;83;21089;-86
2023/01/08 09:08:53;;;;;;;31.95;21.23;;;;;;;4.13;97.69;99665.17;2087577;82;21167;-85
2023/01/08 09:12:06;;;;;;;32.35;20.05;;;;;;;4.43;97.54;99654.54;2073861;83;21536;-85
2023/01/08 09:15:06;;;;;;;35.33;19.98;;;;;;;4.74;97.08;99641.23;2098328;83;20992;-85
2023/01/08 09:18:28;;;;;;;;;;;;;;;;;;;;;
2023/01/08 09:21:20;;;;;;;26.93;18.50;;;;;;;5.42;96.71;99653.37;2069258;83;21063;-85
2023/01/08 09:24:43;;;;;;;29.42;18.32;;;;;;;5.71;95.99;99651.41;2092905;82;21045;-84
2023/01/08 09:27:49;;;;;;;28.40;18.05;;;;;;;6.12;96.06;99657.17;2099580;82;21553;-84
2023/01/08 09:31:01;;;;;;;26.23;17.32;;;;;;;6.36;94.78;99651.28;2079004;83;21015;-85
2023/01/08 09:34:47;;;;;;;;;;;;;;;;;;;;;
2023/01/08 09:38:09;;;;;;;25.25;17.27;;;;;;;6.72;93.70;99656.54;1926671;86;21116;-87
2023/01/08 09:41:48;;;;;;;24.35;17.95;;;;;;;6.98;92.28;99663.14;1956676;88;21194;-86
2023/01/08 09:44:54;;;;;;;24.92;17.05;;;;;;;7.12;92.93;99653.38;2051801;83;21091;-86
2023/01/08 09:48:03;;;;;;;28.98;18.12;;;;;;;7.06;90.65;99659.24;2102774;82;21066;-85
2023/01/08 09:51:34;;;;;;;30.17;18.85;;;;;;;7.04;90.72;99651.15;2136214;82;21008;-86
2023/01/08 09:54:44;;;;;;;30.23;19.10;;;;;;;7.13;91.29;99648.42;2130114;82;21475;-85
2023/01/08 09:57:48;;;;;;;28.38;17.87;;;;;;;7.42;91.79;99644.61;2121780;82;21623;-83
2023/01/08 10:00:54;;;;;;;25.60;17.40;;;;;;;7.55;90.31;99654.75;2114964;82;21035;-84
2023/01/08 10:04:18;;;;;;;26.48;16.42;;;;;;;7.55;89.85;99634.94;2085048;83;21599;-83
2023/01/08 10:07:25;;;;;;;26.42;17.10;;;;;;;7.69;89.71;99620.31;2119098;82;21090;-83
2023/01/08 10:10:31;;;;;;;26.55;17.57;;;;;;;7.75;89.19;99624.44;2103331;83;21034;-85
2023/01/08 10:13:37;;;;;;;27.85;17.57;;;;;;;7.81;88.56;99618.52;2100086;83;21023;-85
2023/01/08 10:16:41;;;;;;;30.40;19.70;;;;;;;7.90;88.33;99612.75;2112694;83;20948;-85
2023/01/08 10:19:44;;;;;;;28.83;18.62;;;;;;;7.89;88.13;99613.75;2106194;83;21549;-82
2023/01/08 10:22:46;;;;;;;25.45;16.23;;;;;;;8.15;88.28;99604.87;2108478;83;21077;-84
2023/01/08 10:25:58;;;;;;;86.15;54.15;;;;;;;8.26;88.25;99602.73;2105234;83;21034;-81
2023/01/08 10:29:13;;;;;;;33.30;21.62;;;;;;;8.28;85.66;99599.95;2097655;83;20976;-84
2023/01/08 10:32:20;;;;;;;22.80;16.02;;;;;;;8.19;85.25;99590.33;2105297;83;21070;-87
2023/01/08 10:35:32;;;;;;;25.75;17.82;;;;;;;7.98;84.40;99585.03;2108987;83;21617;-83
2023/01/08 10:38:41;;;;;;;25.80;17.02;;;;;;;7.88;84.85;99587.48;2102272;83;21059;-85
2023/01/08 10:41:42;;;;;;;26.40;17.75;;;;;;;7.95;85.88;99594.61;2105140;83;21012;-84
2023/01/08 10:45:08;;;;;;;25.62;16.42;;;;;;;8.05;85.16;99596.62;2073817;83;21747;-84
2023/01/08 10:48:16;;;;;;;25.68;17.07;;;;;;;8.06;85.18;99576.30;2104859;83;21058;-84
2023/01/08 10:51:23;;;;;;;29.42;16.65;;;;;;;8.13;85.47;99585.70;2104064;83;20976;-85
2023/01/08 10:54:39;;;;;;;23.47;16.50;;;;;;;8.10;82.55;99577.61;2098856;83;21039;-83
2023/01/08 10:57:46;;;;;;;23.70;15.70;;;;;;;8.01;83.45;99569.35;2102562;83;21050;-84
2023/01/08 11:00:47;;;;;;;26.75;17.77;;;;;;;8.04;84.20;99581.73;2100620;83;21099;-84
2023/01/08 11:03:51;;;;;;;24.37;15.75;;;;;;;8.07;82.98;99585.38;2102853;83;21066;-84
2023/01/08 11:06:58;;;;;;;24.35;16.67;;;;;;;8.01;83.54;99577.28;2099666;83;21043;-83
2023/01/08 11:09:56;;;;;;;26.15;16.65;;;;;;;7.98;84.24;99574.47;2105951;83;21001;-84
2023/01/08 11:13:03;;;;;;;26.73;17.55;;;;;;;8.00;84.29;99567.71;2105110;83;21055;-86
2023/01/08 11:16:09;;;;;;;23.87;15.98;;;;;;;8.02;83.53;99564.39;2108731;83;21062;-85
2023/01/08 11:19:26;;;;;;;25.43;17.30;;;;;;;8.01;83.94;99556.14;2105075;83;21027;-83
2023/01/08 11:22:29;;;;;;;26.55;18.12;;;;;;;8.11;84.08;99546.72;2099566;83;21054;-84
2023/01/08 11:25:31;;;;;;;27.93;18.50;;;;;;;8.04;82.48;99541.28;2074011;84;21040;-84
2023/01/08 11:29:01;;;;;;;29.45;19.82;;;;;;;7.93;83.21;99543.74;2104393;83;21013;-83
2023/01/08 11:32:20;;;;;;;26.45;17.80;;;;;;;7.88;83.33;99535.48;2100657;83;21538;-83
